createdAt,value
2019-04-05T00:05:56.330Z,7.32
2019-04-05T00:10:59.770Z,7.32
2019-04-05T00:16:03.313Z,7.33
2019-04-05T00:21:06.801Z,7.31
2019-04-05T00:26:10.246Z,7.26
2019-04-05T00:31:13.702Z,7.25
2019-04-05T00:36:17.211Z,7.22
2019-04-05T00:41:21.329Z,7.21
2019-04-05T00:46:24.718Z,7.17
2019-04-05T00:51:28.224Z,7.25
2019-04-05T00:56:31.682Z,7.21
2019-04-05T01:01:35.606Z,7.23
2019-04-05T01:06:39.193Z,7.25
2019-04-05T01:11:42.730Z,7.33
2019-04-05T01:16:46.211Z,7.30
2019-04-05T01:21:49.735Z,7.32
2019-04-05T01:26:55.400Z,7.34
2019-04-05T01:31:58.847Z,7.36
2019-04-05T01:37:02.441Z,7.34
2019-04-05T01:42:06.963Z,7.31
2019-04-05T01:47:10.478Z,7.36
2019-04-05T01:52:14.120Z,7.26
2019-04-05T01:57:17.579Z,7.31
2019-04-05T02:02:21.035Z,7.31
2019-04-05T02:07:24.642Z,7.27
2019-04-05T02:12:28.196Z,7.23
2019-04-05T02:17:31.675Z,7.23
2019-04-05T02:22:35.213Z,7.22
2019-04-05T02:27:38.682Z,7.20
2019-04-05T02:32:42.224Z,7.19
2019-04-05T02:37:45.834Z,7.19
2019-04-05T02:42:52.649Z,7.18
2019-04-05T02:47:59.161Z,7.15
2019-04-05T02:53:05.654Z,7.15
2019-04-05T02:58:10.721Z,7.10
2019-04-05T03:03:15.483Z,7.01
2019-04-05T03:08:19.246Z,6.99
2019-04-05T03:13:46.478Z,7.04
2019-04-05T03:18:52.936Z,6.96
2019-04-05T03:23:59.424Z,7.06
2019-04-05T03:29:05.914Z,6.96
2019-04-05T03:34:09.629Z,6.95
2019-04-05T03:39:13.483Z,6.95
2019-04-05T03:44:16.957Z,6.88
2019-04-05T03:49:20.602Z,6.89
2019-04-05T03:54:24.040Z,6.91
2019-04-05T03:59:27.621Z,6.97
2019-04-05T04:04:31.396Z,6.97
2019-04-05T04:09:35.107Z,7.00
2019-04-05T04:14:39.266Z,7.00
2019-04-05T04:19:42.770Z,6.99
2019-04-05T04:24:46.768Z,6.98
2019-04-05T04:29:50.334Z,7.00
2019-04-05T04:34:54.612Z,7.01
2019-04-05T04:39:58.202Z,7.09
2019-04-05T04:45:11.811Z,7.17
2019-04-05T04:50:09.512Z,7.18
2019-04-05T04:55:13.117Z,7.15
2019-04-05T05:00:18.537Z,7.19
2019-04-05T05:05:22.837Z,7.17
2019-04-05T05:10:26.713Z,7.20
2019-04-05T05:15:30.593Z,7.14
2019-04-05T05:20:34.356Z,7.17
2019-04-05T05:25:37.848Z,7.22
2019-04-05T05:30:41.343Z,7.25
2019-04-05T05:35:44.883Z,7.28
2019-04-05T05:40:48.312Z,7.31
2019-04-05T05:45:51.873Z,7.30
2019-04-05T05:50:55.660Z,7.17
2019-04-05T05:55:59.085Z,7.15
2019-04-05T06:01:02.524Z,7.25
2019-04-05T06:06:06.006Z,7.30
2019-04-05T06:11:09.437Z,7.29
2019-04-05T06:16:12.920Z,7.33
2019-04-05T06:21:16.347Z,7.37
2019-04-05T06:26:19.789Z,7.48
2019-04-05T06:31:23.227Z,7.29
2019-04-05T06:36:26.658Z,7.38
2019-04-05T06:41:30.091Z,7.45
2019-04-05T06:46:33.523Z,7.43
2019-04-05T06:51:36.972Z,7.43
2019-04-05T06:56:40.395Z,7.52
2019-04-05T07:01:43.818Z,7.51
2019-04-05T07:06:47.296Z,7.37
2019-04-05T07:11:50.718Z,7.46
2019-04-05T07:16:54.249Z,7.52
2019-04-05T07:21:57.752Z,7.59
2019-04-05T07:27:01.333Z,7.56
2019-04-05T07:32:05.317Z,7.56
2019-04-05T07:37:08.739Z,7.46
2019-04-05T07:42:12.168Z,7.54
2019-04-05T07:47:15.600Z,7.53
2019-04-05T07:52:19.036Z,7.68
2019-04-05T07:57:22.459Z,7.72
2019-04-05T08:02:25.971Z,7.71
2019-04-05T08:07:32.460Z,7.80
2019-04-05T08:12:37.420Z,7.74
2019-04-05T08:17:40.855Z,7.71
2019-04-05T08:22:44.269Z,7.67
2019-04-05T08:27:47.684Z,7.82
2019-04-05T08:32:51.103Z,7.89
2019-04-05T08:37:54.559Z,8.04
2019-04-05T08:42:57.989Z,8.00
2019-04-05T08:48:01.565Z,7.79
2019-04-05T08:53:05.373Z,7.89
2019-04-05T08:58:08.793Z,8.02
2019-04-05T09:03:12.268Z,7.99
2019-04-05T09:08:16.002Z,8.18
2019-04-05T09:13:19.437Z,8.29
2019-04-05T09:18:22.867Z,8.25
2019-04-05T09:23:26.304Z,8.27
2019-04-05T09:28:29.769Z,8.47
2019-04-05T09:33:33.216Z,8.09
2019-04-05T09:38:36.655Z,8.14
2019-04-05T09:43:40.173Z,8.25
2019-04-05T09:48:43.610Z,8.14
2019-04-05T09:53:47.063Z,8.25
2019-04-05T09:58:50.468Z,8.45
2019-04-05T10:03:53.925Z,8.51
2019-04-05T10:08:57.341Z,8.49
2019-04-05T10:14:00.776Z,8.63
2019-04-05T10:19:04.626Z,8.59
2019-04-05T10:24:08.037Z,8.62
2019-04-05T10:29:11.465Z,8.63
2019-04-05T10:34:15.440Z,8.76
2019-04-05T10:39:18.877Z,8.69
2019-04-05T10:44:22.311Z,8.72
2019-04-05T10:49:25.823Z,8.63
2019-04-05T10:54:29.292Z,8.71
2019-04-05T10:59:32.807Z,8.77
2019-04-05T11:04:36.250Z,8.95
2019-04-05T11:09:39.748Z,8.84
2019-04-05T11:14:43.489Z,8.85
2019-04-05T11:19:46.929Z,8.46
2019-04-05T11:24:50.390Z,8.68
2019-04-05T11:29:53.844Z,8.75
2019-04-05T11:34:57.292Z,8.75
2019-04-05T11:40:00.830Z,8.84
2019-04-05T11:45:05.698Z,8.78
2019-04-05T11:50:11.393Z,8.82
2019-04-05T11:55:18.222Z,8.85
2019-04-05T12:00:23.400Z,8.89
2019-04-05T12:05:27.374Z,8.99
2019-04-05T12:10:32.131Z,8.76
2019-04-05T12:15:36.436Z,8.78
2019-04-05T12:20:48.324Z,8.82
2019-04-05T12:25:45.149Z,8.92
2019-04-05T12:30:49.468Z,8.71
2019-04-05T12:35:56.318Z,8.78
2019-04-05T12:40:59.019Z,8.69
2019-04-05T12:46:04.898Z,8.96
2019-04-05T12:51:08.811Z,8.79
2019-04-05T12:56:12.265Z,8.90
2019-04-05T13:01:15.784Z,9.00
2019-04-05T13:06:19.892Z,8.96
2019-04-05T13:11:26.686Z,8.92
2019-04-05T13:16:29.596Z,8.84
2019-04-05T13:21:33.301Z,8.93
2019-04-05T13:26:37.155Z,8.77
2019-04-05T13:31:40.762Z,8.88
2019-04-05T13:36:44.209Z,8.96
2019-04-05T13:41:47.656Z,8.79
2019-04-05T13:46:51.073Z,8.95
2019-04-05T13:51:54.514Z,8.77
2019-04-05T13:56:58.185Z,8.98
2019-04-05T14:02:06.283Z,8.76
2019-04-05T14:07:07.219Z,8.98
2019-04-05T14:12:10.665Z,8.78
2019-04-05T14:17:14.363Z,8.65
2019-04-05T14:22:17.867Z,8.72
2019-04-05T14:27:21.326Z,8.81
2019-04-05T14:32:24.776Z,8.82
2019-04-05T14:37:28.303Z,8.83
2019-04-05T14:42:31.732Z,8.87
2019-04-05T14:47:35.204Z,8.72
2019-04-05T14:52:38.908Z,8.65
2019-04-05T14:57:42.331Z,8.73
2019-04-05T15:02:45.776Z,8.72
2019-04-05T15:07:51.054Z,8.76
2019-04-05T15:12:54.391Z,8.83
2019-04-05T15:17:57.912Z,8.78
2019-04-05T15:23:01.430Z,8.68
2019-04-05T15:28:04.870Z,8.87
2019-04-05T15:33:08.373Z,8.82
2019-04-05T15:38:11.895Z,8.92
2019-04-05T15:43:15.335Z,8.71
2019-04-05T15:48:20.492Z,8.84
2019-04-05T15:53:23.937Z,8.86
2019-04-05T15:58:27.383Z,8.82
2019-04-05T16:03:32.289Z,8.80
2019-04-05T16:08:36.131Z,8.78
2019-04-05T16:13:39.571Z,8.94
2019-04-05T16:18:43.893Z,8.96
2019-04-05T16:23:47.383Z,8.78
2019-04-05T16:28:50.823Z,8.83
2019-04-05T16:33:54.237Z,8.90
2019-04-05T16:38:57.782Z,8.86
2019-04-05T16:44:01.209Z,8.86
2019-04-05T16:49:04.676Z,8.76
2019-04-05T16:54:08.163Z,8.67
2019-04-05T16:59:11.657Z,8.66
2019-04-05T17:04:15.967Z,8.62
2019-04-05T17:09:19.423Z,8.69
2019-04-05T17:14:23.374Z,8.71
2019-04-05T17:19:26.837Z,8.72
2019-04-05T17:24:30.278Z,8.66
2019-04-05T17:29:33.693Z,8.60
2019-04-05T17:34:37.108Z,8.60
2019-04-05T17:39:40.557Z,8.69
2019-04-05T17:44:44.016Z,8.65
2019-04-05T17:49:47.768Z,8.68
2019-04-05T17:54:51.264Z,8.71
2019-04-05T17:59:54.862Z,8.66
2019-04-05T18:04:58.842Z,8.61
2019-04-05T18:10:02.272Z,8.60
2019-04-05T18:15:06.363Z,8.61
2019-04-05T18:20:10.266Z,8.52
2019-04-05T18:25:14.369Z,8.50
2019-04-05T18:30:19.156Z,8.51
2019-04-05T18:35:22.597Z,8.53
2019-04-05T18:40:26.036Z,8.59
2019-04-05T18:45:30.160Z,8.60
2019-04-05T18:50:33.596Z,8.62
2019-04-05T18:55:37.149Z,8.52
2019-04-05T19:00:40.593Z,8.54
2019-04-05T19:05:44.023Z,8.55
2019-04-05T19:10:47.485Z,8.57
2019-04-05T19:15:50.933Z,8.59
2019-04-05T19:20:54.402Z,8.62
2019-04-05T19:25:57.848Z,8.58
2019-04-05T19:51:22.120Z,8.55
2019-04-05T19:56:25.562Z,8.57
2019-04-05T20:01:29.033Z,8.59
2019-04-05T20:06:32.499Z,8.59
2019-04-05T20:11:35.924Z,8.57
2019-04-05T20:16:39.361Z,8.58
2019-04-05T20:21:42.799Z,8.56
2019-04-05T20:26:46.280Z,8.58
2019-04-05T20:31:49.983Z,8.58
2019-04-05T20:36:53.750Z,8.60
2019-04-05T20:41:57.189Z,8.57
2019-04-05T20:47:00.677Z,8.61
2019-04-05T20:52:04.403Z,8.61
2019-04-05T20:57:07.816Z,8.60
2019-04-05T21:02:11.250Z,8.40
2019-04-05T21:07:14.670Z,8.46
2019-04-05T21:12:18.092Z,8.36
2019-04-05T21:17:21.528Z,8.30
2019-04-05T21:22:24.992Z,8.32
2019-04-05T21:27:28.454Z,8.31
2019-04-05T21:32:31.990Z,8.23
2019-04-05T21:37:35.480Z,8.32
2019-04-05T21:42:38.913Z,8.37
2019-04-05T21:47:42.369Z,8.39
2019-04-05T21:52:45.824Z,8.35
2019-04-05T21:57:49.316Z,8.40
2019-04-05T22:02:52.786Z,8.39
2019-04-05T22:07:56.251Z,8.39
2019-04-05T22:13:04.648Z,8.41
2019-04-05T22:18:08.138Z,8.43
2019-04-05T22:23:12.090Z,8.39
2019-04-05T22:28:15.538Z,8.38
2019-04-05T22:33:19.015Z,8.36
2019-04-05T22:38:22.494Z,8.36
2019-04-05T22:43:25.962Z,8.35
2019-04-05T22:48:29.419Z,8.33
2019-04-05T22:53:32.892Z,8.29
2019-04-05T22:58:36.364Z,8.32
2019-04-05T23:03:39.814Z,8.33
2019-04-05T23:08:43.673Z,8.25
2019-04-05T23:13:47.133Z,8.27
2019-04-05T23:18:50.585Z,8.22
2019-04-05T23:23:54.059Z,8.21
2019-04-05T23:28:57.557Z,8.29
2019-04-05T23:34:01.063Z,8.33
2019-04-05T23:39:05.606Z,8.22
2019-04-05T23:44:09.119Z,8.27
2019-04-05T23:49:12.580Z,8.31
2019-04-05T23:54:16.046Z,8.35
2019-04-05T23:59:19.538Z,8.36
